createdAt,value
2018-11-07T00:01:35.214Z,100195.47
2018-11-07T00:04:05.231Z,100194.37
2018-11-07T00:06:35.296Z,100195.33
2018-11-07T00:09:06.479Z,100196.03
2018-11-07T00:11:36.394Z,100195.55
2018-11-07T00:14:06.508Z,100187.02
2018-11-07T00:16:35.835Z,100183.88
2018-11-07T00:19:06.365Z,100182.86
2018-11-07T00:21:35.901Z,100170.98
2018-11-07T00:24:05.847Z,100181.64
2018-11-07T00:26:35.457Z,100191.69
2018-11-07T00:29:05.155Z,100192.19
2018-11-07T00:31:34.533Z,100178.92
2018-11-07T00:34:04.318Z,100184.47
2018-11-07T00:36:33.739Z,100185.41
2018-11-07T00:39:03.362Z,100181.03
2018-11-07T00:41:32.773Z,100193.09
2018-11-07T00:44:02.069Z,100191.24
2018-11-07T00:46:31.807Z,100182.45
2018-11-07T00:49:01.547Z,100181.03
2018-11-07T00:51:31.182Z,100183.30
2018-11-07T00:54:01.331Z,100177.01
2018-11-07T00:56:31.094Z,100193.55
2018-11-07T00:59:00.968Z,100203.09
2018-11-07T01:01:30.475Z,100206.21
2018-11-07T01:04:00.384Z,100207.19
2018-11-07T01:06:30.119Z,100206.28
2018-11-07T01:09:00.174Z,100227.67
2018-11-07T01:11:30.027Z,100228.48
2018-11-07T01:13:59.607Z,100225.49
2018-11-07T01:16:29.149Z,100219.69
2018-11-07T01:18:58.418Z,100227.35
2018-11-07T01:21:28.160Z,100228.47
2018-11-07T01:23:58.084Z,100222.46
2018-11-07T01:26:27.800Z,100217.23
2018-11-07T01:28:57.440Z,100223.28
2018-11-07T01:31:27.491Z,100227.35
2018-11-07T01:33:57.165Z,100221.78
2018-11-07T01:36:26.783Z,100231.96
2018-11-07T01:38:56.297Z,100226.67
2018-11-07T01:41:26.651Z,100231.81
2018-11-07T01:43:56.546Z,100217.47
2018-11-07T01:46:26.011Z,100230.02
2018-11-07T01:49:00.465Z,100172.08
2018-11-07T01:51:30.201Z,100222.97
2018-11-07T01:54:00.466Z,100225.42
2018-11-07T01:56:30.460Z,100219.86
2018-11-07T01:58:59.894Z,100224.86
2018-11-07T02:01:29.771Z,100220.00
2018-11-07T02:03:59.627Z,100216.13
2018-11-07T02:06:29.146Z,100212.59
2018-11-07T02:08:58.576Z,100210.80
2018-11-07T02:11:28.318Z,100205.69
2018-11-07T02:13:58.582Z,100215.45
2018-11-07T02:16:28.112Z,100216.08
2018-11-07T02:18:58.626Z,100222.27
2018-11-07T02:21:28.099Z,100215.02
2018-11-07T02:23:57.911Z,100227.55
2018-11-07T02:26:28.211Z,100220.09
2018-11-07T02:28:58.390Z,100225.55
2018-11-07T02:31:27.744Z,100227.67
2018-11-07T02:33:57.822Z,100225.04
2018-11-07T02:36:27.168Z,100222.27
2018-11-07T02:38:57.224Z,100223.45
2018-11-07T02:41:26.691Z,100226.44
2018-11-07T02:43:56.529Z,100230.67
2018-11-07T02:46:26.231Z,100222.73
2018-11-07T02:48:55.781Z,100227.42
2018-11-07T02:51:25.617Z,100232.92
2018-11-07T02:53:55.207Z,100227.26
2018-11-07T02:56:24.836Z,100230.39
2018-11-07T02:58:54.788Z,100222.59
2018-11-07T03:01:24.059Z,100227.63
2018-11-07T03:03:54.035Z,100225.19
2018-11-07T03:06:23.518Z,100222.67
2018-11-07T03:08:53.436Z,100204.53
2018-11-07T03:11:24.004Z,100200.77
2018-11-07T03:13:53.419Z,100202.78
2018-11-07T03:16:23.306Z,100207.67
2018-11-07T03:18:53.580Z,100206.34
2018-11-07T03:21:23.433Z,100205.77
2018-11-07T03:23:52.894Z,100203.91
2018-11-07T03:26:22.528Z,100208.26
2018-11-07T03:28:52.546Z,100204.37
2018-11-07T03:31:22.041Z,100201.03
2018-11-07T03:33:51.282Z,100204.95
2018-11-07T03:36:20.627Z,100191.78
2018-11-07T03:38:50.316Z,100185.69
2018-11-07T03:41:20.490Z,100188.88
2018-11-07T03:43:50.287Z,100185.94
2018-11-07T03:46:20.952Z,100189.69
2018-11-07T03:48:50.239Z,100187.52
2018-11-07T03:51:19.734Z,100188.91
2018-11-07T03:53:49.196Z,100182.17
2018-11-07T03:56:18.723Z,100182.64
2018-11-07T03:58:48.819Z,100191.34
2018-11-07T04:01:19.102Z,100199.83
2018-11-07T04:03:48.665Z,100191.48
2018-11-07T04:06:18.353Z,100196.09
2018-11-07T04:08:47.887Z,100187.59
2018-11-07T04:11:17.986Z,100183.33
2018-11-07T04:13:47.550Z,100187.38
2018-11-07T04:16:17.190Z,100181.30
2018-11-07T04:18:46.780Z,100182.66
2018-11-07T04:21:16.486Z,100185.41
2018-11-07T04:24:04.081Z,100186.06
2018-11-07T04:26:34.935Z,100177.51
2018-11-07T04:29:04.935Z,100175.54
2018-11-07T04:31:34.942Z,100175.30
2018-11-07T04:34:04.493Z,100178.07
2018-11-07T04:36:34.718Z,100181.01
2018-11-07T04:39:05.073Z,100180.39
2018-11-07T04:41:34.797Z,100182.56
2018-11-07T04:44:04.126Z,100189.57
2018-11-07T04:46:34.437Z,100186.00
2018-11-07T04:49:04.436Z,100196.80
2018-11-07T04:51:34.731Z,100198.22
2018-11-07T04:54:04.825Z,100195.58
2018-11-07T04:56:34.307Z,100202.44
2018-11-07T04:59:03.802Z,100212.66
2018-11-07T05:01:33.137Z,100212.66
2018-11-07T05:04:02.824Z,100213.52
2018-11-07T05:06:32.939Z,100208.52
2018-11-07T05:09:02.251Z,100215.55
2018-11-07T05:11:32.186Z,100226.11
2018-11-07T05:14:01.637Z,100235.78
2018-11-07T05:16:31.349Z,100232.63
2018-11-07T05:19:00.582Z,100222.92
2018-11-07T05:21:30.174Z,100218.03
2018-11-07T05:24:00.651Z,100213.86
2018-11-07T05:26:30.781Z,100203.27
2018-11-07T05:29:00.485Z,100194.00
2018-11-07T05:31:30.127Z,100189.52
2018-11-07T05:33:59.829Z,100197.09
2018-11-07T05:36:29.423Z,100194.68
2018-11-07T05:38:59.836Z,100187.21
2018-11-07T05:41:29.526Z,100194.57
2018-11-07T05:43:59.470Z,100190.94
2018-11-07T05:46:28.890Z,100195.11
2018-11-07T05:48:58.634Z,100181.33
2018-11-07T05:51:28.943Z,100168.97
2018-11-07T05:53:58.880Z,100170.94
2018-11-07T05:56:28.521Z,100166.63
2018-11-07T05:58:58.561Z,100166.83
2018-11-07T06:01:27.992Z,100171.92
2018-11-07T06:03:57.452Z,100173.05
2018-11-07T06:06:28.254Z,100185.03
2018-11-07T06:08:57.714Z,100172.31
2018-11-07T06:11:27.047Z,100184.62
2018-11-07T06:13:56.516Z,100190.27
2018-11-07T06:16:26.036Z,100188.91
2018-11-07T06:18:55.798Z,100199.66
2018-11-07T06:21:26.495Z,100192.50
2018-11-07T06:23:55.768Z,100187.08
2018-11-07T06:26:25.279Z,100182.77
2018-11-07T06:28:55.016Z,100181.44
2018-11-07T06:31:25.131Z,100169.86
2018-11-07T06:33:55.127Z,100171.33
2018-11-07T06:36:25.641Z,100174.14
2018-11-07T06:38:55.515Z,100179.58
2018-11-07T06:41:26.011Z,100174.03
2018-11-07T06:43:56.039Z,100179.67
2018-11-07T06:46:25.659Z,100183.00
2018-11-07T06:48:55.502Z,100188.02
2018-11-07T06:51:25.740Z,100179.73
2018-11-07T06:53:55.508Z,100178.61
2018-11-07T06:56:25.027Z,100179.42
2018-11-07T06:58:54.778Z,100186.83
2018-11-07T07:01:24.620Z,100192.02
2018-11-07T07:03:53.969Z,100203.55
2018-11-07T07:06:23.923Z,100209.74
2018-11-07T07:08:53.182Z,100209.97
2018-11-07T07:11:23.174Z,100211.16
2018-11-07T07:13:52.521Z,100209.89
2018-11-07T07:16:23.247Z,100212.30
2018-11-07T07:18:52.705Z,100215.22
2018-11-07T07:21:22.829Z,100222.24
2018-11-07T07:23:52.502Z,100228.13
2018-11-07T07:26:22.736Z,100232.95
2018-11-07T07:28:52.569Z,100238.09
2018-11-07T07:31:22.081Z,100234.66
2018-11-07T07:33:52.503Z,100231.75
2018-11-07T07:36:22.398Z,100239.73
2018-11-07T07:38:52.854Z,100235.41
2018-11-07T07:41:24.228Z,100223.48
2018-11-07T07:43:53.890Z,100227.20
2018-11-07T07:46:23.620Z,100223.50
2018-11-07T07:48:53.493Z,100221.05
2018-11-07T07:51:23.230Z,100222.23
2018-11-07T07:53:52.612Z,100216.89
2018-11-07T07:56:22.241Z,100219.08
2018-11-07T07:58:52.351Z,100220.75
2018-11-07T08:01:22.176Z,100220.34
2018-11-07T08:03:51.744Z,100220.05
2018-11-07T08:06:22.203Z,100213.86
2018-11-07T08:08:52.375Z,100207.38
2018-11-07T08:11:21.918Z,100205.81
2018-11-07T08:13:51.451Z,100208.55
2018-11-07T08:16:21.845Z,100203.91
2018-11-07T08:18:51.885Z,100200.59
2018-11-07T08:21:21.489Z,100210.58
2018-11-07T08:23:51.655Z,100206.60
2018-11-07T08:26:21.505Z,100210.99
2018-11-07T08:28:51.797Z,100214.02
2018-11-07T08:31:21.887Z,100211.58
2018-11-07T08:33:51.491Z,100214.78
2018-11-07T08:36:21.036Z,100216.29
2018-11-07T08:38:50.727Z,100213.02
2018-11-07T08:41:20.722Z,100215.70
2018-11-07T08:43:50.570Z,100215.42
2018-11-07T08:46:21.176Z,100221.38
2018-11-07T08:48:50.795Z,100216.13
2018-11-07T08:51:20.353Z,100214.34
2018-11-07T08:53:49.844Z,100213.69
2018-11-07T08:56:19.131Z,100209.51
2018-11-07T08:58:48.842Z,100213.13
2018-11-07T09:01:18.469Z,100205.02
2018-11-07T09:03:48.235Z,100202.42
2018-11-07T09:06:18.106Z,100203.59
2018-11-07T09:08:48.139Z,100200.91
2018-11-07T09:11:17.355Z,100197.35
2018-11-07T09:13:46.878Z,100202.59
2018-11-07T09:16:16.370Z,100199.56
2018-11-07T09:18:46.241Z,100208.41
2018-11-07T09:21:16.207Z,100215.30
2018-11-07T09:23:45.766Z,100212.86
2018-11-07T09:26:15.603Z,100206.12
2018-11-07T09:28:45.739Z,100206.27
2018-11-07T09:31:16.071Z,100198.28
2018-11-07T09:33:46.309Z,100196.30
2018-11-07T09:36:16.237Z,100190.09
2018-11-07T09:38:46.806Z,100179.70
2018-11-07T09:41:16.740Z,100191.20
2018-11-07T09:43:46.903Z,100194.38
2018-11-07T09:46:16.376Z,100198.45
2018-11-07T09:48:46.471Z,100195.58
2018-11-07T09:51:16.287Z,100197.42
2018-11-07T09:53:45.729Z,100201.48
2018-11-07T09:56:15.621Z,100195.97
2018-11-07T09:58:45.993Z,100197.19
2018-11-07T10:01:15.464Z,100199.16
2018-11-07T10:03:44.984Z,100199.38
2018-11-07T10:06:15.106Z,100194.53
2018-11-07T10:08:44.747Z,100190.33
2018-11-07T10:11:13.998Z,100196.44
2018-11-07T10:13:43.459Z,100198.91
2018-11-07T10:16:13.976Z,100192.22
2018-11-07T10:18:44.030Z,100192.26
2018-11-07T10:21:13.745Z,100197.64
2018-11-07T10:23:43.006Z,100198.89
2018-11-07T10:26:12.297Z,100180.30
2018-11-07T10:28:42.247Z,100187.92
2018-11-07T10:31:12.140Z,100191.77
2018-11-07T10:33:42.550Z,100189.86
2018-11-07T10:36:12.686Z,100182.41
2018-11-07T10:38:42.154Z,100177.53
2018-11-07T10:41:11.994Z,100170.75
2018-11-07T10:43:41.808Z,100169.70
2018-11-07T10:46:11.323Z,100170.17
2018-11-07T10:48:41.229Z,100164.64
2018-11-07T10:51:10.686Z,100162.95
2018-11-07T10:53:41.215Z,100160.03
2018-11-07T10:56:12.195Z,100164.12
2018-11-07T10:58:42.068Z,100169.21
2018-11-07T11:01:16.663Z,100170.59
2018-11-07T11:03:46.215Z,100159.29
2018-11-07T11:06:15.723Z,100162.13
2018-11-07T11:08:45.211Z,100156.04
2018-11-07T11:11:15.344Z,100153.11
2018-11-07T11:13:45.075Z,100158.42
2018-11-07T11:16:14.578Z,100145.95
2018-11-07T11:18:44.932Z,100107.20
2018-11-07T11:21:14.967Z,100151.77
2018-11-07T11:23:45.186Z,100135.28
2018-11-07T11:26:15.396Z,100150.38
2018-11-07T11:28:45.931Z,100121.87
2018-11-07T11:31:17.216Z,100148.61
2018-11-07T11:33:47.752Z,100147.14
2018-11-07T11:36:16.923Z,100150.70
2018-11-07T11:38:46.457Z,100147.08
2018-11-07T11:41:16.120Z,100142.19
2018-11-07T11:43:45.856Z,100143.16
2018-11-07T11:46:16.000Z,100147.90
2018-11-07T11:48:45.920Z,100147.52
2018-11-07T11:51:15.492Z,100146.12
2018-11-07T11:53:45.669Z,100150.38
2018-11-07T11:56:15.048Z,100152.76
2018-11-07T11:58:45.356Z,100158.91
2018-11-07T12:01:15.286Z,100156.59
2018-11-07T12:03:46.028Z,100156.57
2018-11-07T12:06:15.974Z,100153.25
2018-11-07T12:08:46.039Z,100165.48
2018-11-07T12:11:16.146Z,100153.22
2018-11-07T12:13:46.351Z,100163.93
2018-11-07T12:16:15.637Z,100161.78
2018-11-07T12:18:45.993Z,100168.66
2018-11-07T12:21:16.283Z,100158.78
2018-11-07T12:23:47.014Z,100164.64
2018-11-07T12:26:16.587Z,100169.34
2018-11-07T12:28:46.516Z,100166.13
2018-11-07T12:31:16.345Z,100171.81
2018-11-07T12:33:46.204Z,100166.37
2018-11-07T12:36:16.272Z,100162.14
2018-11-07T12:38:48.084Z,100164.27
2018-11-07T12:41:18.639Z,100157.42
2018-11-07T12:43:48.818Z,100162.14
2018-11-07T12:46:18.890Z,100161.28
2018-11-07T12:48:48.881Z,100164.15
2018-11-07T12:51:18.507Z,100156.13
2018-11-07T12:53:48.752Z,100153.47
2018-11-07T12:56:18.639Z,100145.82
2018-11-07T12:58:49.311Z,100146.91
2018-11-07T13:01:18.774Z,100151.55
2018-11-07T13:03:48.620Z,100149.20
2018-11-07T13:06:18.023Z,100142.81
2018-11-07T13:08:47.881Z,100138.94
2018-11-07T13:11:18.096Z,100132.50
2018-11-07T13:13:48.131Z,100133.98
2018-11-07T13:16:18.376Z,100136.66
2018-11-07T13:18:47.942Z,100125.75
2018-11-07T13:21:17.483Z,100133.27
2018-11-07T13:23:47.181Z,100142.00
2018-11-07T13:26:16.650Z,100145.84
2018-11-07T13:28:46.245Z,100148.98
2018-11-07T13:31:15.900Z,100156.52
2018-11-07T13:33:46.210Z,100159.01
2018-11-07T13:36:15.712Z,100162.14
2018-11-07T13:38:45.703Z,100165.87
2018-11-07T13:41:14.824Z,100177.27
2018-11-07T13:43:44.634Z,100180.05
2018-11-07T13:46:15.128Z,100179.95
2018-11-07T13:48:44.658Z,100190.85
2018-11-07T13:51:15.646Z,100193.81
2018-11-07T13:53:45.251Z,100196.80
2018-11-07T13:56:15.010Z,100206.77
2018-11-07T13:58:44.509Z,100208.27
2018-11-07T14:01:14.229Z,100209.75
2018-11-07T14:03:43.699Z,100220.94
2018-11-07T14:06:12.985Z,100223.92
2018-11-07T14:08:42.529Z,100228.68
2018-11-07T14:11:12.086Z,100241.67
2018-11-07T14:13:42.207Z,100237.94
2018-11-07T14:16:12.136Z,100232.65
2018-11-07T14:18:41.592Z,100235.18
2018-11-07T14:21:10.895Z,100235.28
2018-11-07T14:23:40.397Z,100235.13
2018-11-07T14:26:09.991Z,100237.80
2018-11-07T14:28:39.732Z,100238.16
2018-11-07T14:31:09.588Z,100241.61
2018-11-07T14:33:39.046Z,100245.56
2018-11-07T14:36:09.176Z,100235.08
2018-11-07T14:38:39.348Z,100242.83
2018-11-07T14:41:09.341Z,100239.34
2018-11-07T14:43:38.882Z,100240.05
2018-11-07T14:46:09.249Z,100238.79
2018-11-07T14:48:41.111Z,100241.61
2018-11-07T14:51:10.652Z,100247.09
2018-11-07T14:53:41.535Z,100242.56
2018-11-07T14:56:10.907Z,100242.73
2018-11-07T14:58:40.903Z,100239.12
2018-11-07T15:01:10.107Z,100251.20
2018-11-07T15:03:39.823Z,100255.30
2018-11-07T15:06:10.754Z,100262.28
2018-11-07T15:08:40.917Z,100259.84
2018-11-07T15:11:11.229Z,100245.07
2018-11-07T15:13:40.976Z,100240.73
2018-11-07T15:16:10.429Z,100248.01
2018-11-07T15:18:39.948Z,100255.21
2018-11-07T15:21:09.431Z,100263.00
2018-11-07T15:23:38.940Z,100265.67
2018-11-07T15:26:08.433Z,100258.67
2018-11-07T15:28:38.464Z,100269.04
2018-11-07T15:31:07.888Z,100263.64
2018-11-07T15:33:37.378Z,100274.23
2018-11-07T15:36:07.129Z,100270.94
2018-11-07T15:38:36.807Z,100275.08
2018-11-07T15:41:07.716Z,100278.24
2018-11-07T15:43:37.838Z,100284.30
2018-11-07T15:46:08.149Z,100286.11
2018-11-07T15:48:37.956Z,100288.30
2018-11-07T15:51:14.203Z,100292.77
2018-11-07T15:53:44.517Z,100298.13
2018-11-07T15:56:14.219Z,100309.68
2018-11-07T15:58:44.116Z,100309.36
2018-11-07T16:01:14.035Z,100310.28
2018-11-07T16:03:49.252Z,100317.84
2018-11-07T16:06:20.436Z,100325.60
2018-11-07T16:08:50.134Z,100334.02
2018-11-07T16:11:19.811Z,100329.70
2018-11-07T16:13:49.620Z,100330.75
2018-11-07T16:16:23.554Z,100332.16
2018-11-07T16:18:53.346Z,100333.20
2018-11-07T16:21:23.356Z,100335.73
2018-11-07T16:23:54.169Z,100338.86
2018-11-07T16:26:23.857Z,100345.54
2018-11-07T16:28:54.034Z,100349.92
2018-11-07T16:31:23.478Z,100347.41
2018-11-07T16:33:53.163Z,100349.25
2018-11-07T16:36:22.679Z,100348.48
2018-11-07T16:38:52.206Z,100358.97
2018-11-07T16:41:21.846Z,100365.31
2018-11-07T16:43:51.646Z,100373.32
2018-11-07T16:46:21.902Z,100378.34
2018-11-07T16:48:51.478Z,100384.65
2018-11-07T16:51:20.962Z,100380.85
2018-11-07T16:53:50.232Z,100395.33
2018-11-07T16:56:19.768Z,100394.69
2018-11-07T16:58:49.650Z,100391.70
2018-11-07T17:01:19.798Z,100399.39
2018-11-07T17:03:49.658Z,100396.39
2018-11-07T17:06:19.256Z,100402.73
2018-11-07T17:08:48.959Z,100412.25
2018-11-07T17:11:18.612Z,100412.89
2018-11-07T17:13:48.710Z,100424.46
2018-11-07T17:16:19.264Z,100417.79
2018-11-07T17:18:48.910Z,100421.83
2018-11-07T17:21:18.470Z,100417.17
2018-11-07T17:23:47.992Z,100428.34
2018-11-07T17:26:18.118Z,100434.03
2018-11-07T17:28:48.205Z,100442.89
2018-11-07T17:31:18.392Z,100454.70
2018-11-07T17:33:48.055Z,100458.90
2018-11-07T17:36:17.372Z,100458.57
2018-11-07T17:38:46.808Z,100472.76
2018-11-07T17:41:17.157Z,100414.75
2018-11-07T17:43:46.705Z,100467.39
2018-11-07T17:46:17.656Z,100466.38
2018-11-07T17:48:46.926Z,100473.77
2018-11-07T17:51:17.034Z,100472.08
2018-11-07T17:53:46.310Z,100472.56
2018-11-07T17:56:16.469Z,100474.73
2018-11-07T17:58:46.411Z,100468.39
2018-11-07T18:01:16.367Z,100474.89
2018-11-07T18:03:46.168Z,100479.42
2018-11-07T18:06:16.285Z,100480.39
2018-11-07T18:08:46.002Z,100488.58
2018-11-07T18:11:15.572Z,100483.92
2018-11-07T18:13:45.157Z,100484.59
2018-11-07T18:16:14.681Z,100489.27
2018-11-07T18:18:45.324Z,100489.28
2018-11-07T18:21:14.608Z,100492.10
2018-11-07T18:23:44.070Z,100494.28
2018-11-07T18:26:13.899Z,100501.45
2018-11-07T18:28:43.270Z,100503.27
2018-11-07T18:31:13.322Z,100503.44
2018-11-07T18:33:43.498Z,100502.45
2018-11-07T18:36:13.806Z,100499.95
2018-11-07T18:38:43.298Z,100495.13
2018-11-07T18:41:13.420Z,100502.77
2018-11-07T18:43:43.232Z,100509.62
2018-11-07T18:46:12.529Z,100507.45
2018-11-07T18:48:42.191Z,100506.29
2018-11-07T18:51:12.019Z,100508.77
2018-11-07T18:53:41.414Z,100517.46
2018-11-07T18:56:11.979Z,100515.63
2018-11-07T18:58:41.872Z,100519.61
2018-11-07T19:01:11.370Z,100525.60
2018-11-07T19:03:40.891Z,100528.45
2018-11-07T19:06:10.397Z,100533.77
2018-11-07T19:08:40.108Z,100534.95
2018-11-07T19:11:09.635Z,100532.61
2018-11-07T19:13:39.075Z,100537.09
2018-11-07T19:16:08.847Z,100537.28
2018-11-07T19:18:39.751Z,100550.11
2018-11-07T19:21:09.680Z,100551.59
2018-11-07T19:23:39.192Z,100551.95
2018-11-07T19:26:09.255Z,100554.27
2018-11-07T19:28:38.891Z,100553.61
2018-11-07T19:31:08.276Z,100549.92
2018-11-07T19:33:37.779Z,100548.59
2018-11-07T19:36:07.887Z,100556.27
2018-11-07T19:38:37.843Z,100557.42
2018-11-07T19:41:07.307Z,100559.90
2018-11-07T19:43:36.602Z,100567.08
2018-11-07T19:46:06.559Z,100570.91
2018-11-07T19:48:36.053Z,100575.24
2018-11-07T19:51:12.327Z,100578.06
2018-11-07T19:53:42.046Z,100574.89
2018-11-07T19:56:11.284Z,100578.88
2018-11-07T19:58:41.039Z,100582.03
2018-11-07T20:01:10.766Z,100574.73
2018-11-07T20:03:40.060Z,100594.37
2018-11-07T20:06:09.587Z,100587.52
2018-11-07T20:08:39.273Z,100589.02
2018-11-07T20:11:08.602Z,100596.37
2018-11-07T20:13:38.060Z,100604.02
2018-11-07T20:16:08.115Z,100597.65
2018-11-07T20:18:38.401Z,100598.83
2018-11-07T20:21:07.627Z,100595.47
2018-11-07T20:23:37.498Z,100597.63
2018-11-07T20:26:06.879Z,100599.47
2018-11-07T20:28:37.239Z,100603.13
2018-11-07T20:31:07.347Z,100616.76
2018-11-07T20:33:38.475Z,100615.09
2018-11-07T20:36:07.787Z,100612.46
2018-11-07T20:38:37.838Z,100618.42
2018-11-07T20:41:07.314Z,100618.42
2018-11-07T20:43:37.080Z,100622.57
2018-11-07T20:46:06.398Z,100621.09
2018-11-07T20:48:35.668Z,100617.91
2018-11-07T20:51:05.407Z,100622.57
2018-11-07T20:53:35.312Z,100631.23
2018-11-07T20:56:05.805Z,100636.55
2018-11-07T20:58:35.349Z,100641.55
2018-11-07T21:01:04.816Z,100642.70
2018-11-07T21:03:34.087Z,100643.03
2018-11-07T21:06:04.249Z,100646.36
2018-11-07T21:08:34.147Z,100655.16
2018-11-07T21:11:03.682Z,100661.34
2018-11-07T21:13:33.969Z,100677.33
2018-11-07T21:16:03.797Z,100678.84
2018-11-07T21:18:33.602Z,100676.99
2018-11-07T21:21:03.727Z,100676.66
2018-11-07T21:23:34.676Z,100677.48
2018-11-07T21:26:04.331Z,100678.25
2018-11-07T21:28:34.285Z,100673.77
2018-11-07T21:31:04.250Z,100671.74
2018-11-07T21:33:35.280Z,100676.63
2018-11-07T21:36:05.026Z,100680.21
2018-11-07T21:38:34.811Z,100687.20
2018-11-07T21:41:05.098Z,100683.44
2018-11-07T21:43:35.436Z,100637.19
2018-11-07T21:46:05.553Z,100688.23
2018-11-07T21:48:34.855Z,100697.52
2018-11-07T21:51:04.985Z,100700.23
2018-11-07T21:53:35.266Z,100711.21
2018-11-07T21:56:05.146Z,100705.63
2018-11-07T21:58:35.137Z,100712.30
2018-11-07T22:01:05.830Z,100716.16
2018-11-07T22:03:36.095Z,100718.06
2018-11-07T22:06:06.011Z,100716.72
2018-11-07T22:08:36.285Z,100729.66
2018-11-07T22:11:05.578Z,100731.98
2018-11-07T22:13:35.843Z,100737.11
2018-11-07T22:16:05.874Z,100738.78
2018-11-07T22:18:35.847Z,100738.92
2018-11-07T22:21:05.764Z,100740.91
2018-11-07T22:23:35.848Z,100746.05
2018-11-07T22:26:05.833Z,100740.19
2018-11-07T22:28:35.940Z,100743.72
2018-11-07T22:31:05.967Z,100747.50
2018-11-07T22:33:35.611Z,100748.69
2018-11-07T22:36:05.521Z,100753.11
2018-11-07T22:38:35.137Z,100760.62
2018-11-07T22:41:04.893Z,100762.67
2018-11-07T22:43:34.680Z,100758.16
2018-11-07T22:46:04.540Z,100759.95
2018-11-07T22:48:34.362Z,100761.42
2018-11-07T22:51:03.667Z,100757.04
2018-11-07T22:53:33.998Z,100773.71
2018-11-07T22:56:04.339Z,100772.72
2018-11-07T22:58:34.264Z,100765.87
2018-11-07T23:01:08.927Z,100769.20
2018-11-07T23:03:39.002Z,100774.66
2018-11-07T23:06:08.807Z,100779.46
2018-11-07T23:08:38.752Z,100777.12
2018-11-07T23:11:08.040Z,100773.66
2018-11-07T23:13:37.991Z,100781.45
2018-11-07T23:16:08.776Z,100774.19
2018-11-07T23:18:38.678Z,100767.54
2018-11-07T23:21:07.979Z,100772.72
2018-11-07T23:23:37.511Z,100782.23
2018-11-07T23:26:06.841Z,100789.17
2018-11-07T23:28:36.769Z,100793.30
2018-11-07T23:31:07.182Z,100802.98
2018-11-07T23:33:37.386Z,100810.39
2018-11-07T23:36:07.187Z,100806.52
2018-11-07T23:38:37.327Z,100811.98
2018-11-07T23:41:07.539Z,100806.86
2018-11-07T23:43:36.994Z,100813.39
2018-11-07T23:46:06.639Z,100807.92
2018-11-07T23:48:36.007Z,100809.91
2018-11-07T23:51:05.946Z,100815.57
2018-11-07T23:53:35.600Z,100819.56
2018-11-07T23:56:05.361Z,100815.71
2018-11-07T23:58:35.495Z,100806.87
